Portada
METAR-TAF:

METAR-TAF

Aeropuertos :

San José de Chiquitos, Bolivia

latitud: 17-48S, longitud: 060-44W, altitud: 284 m

Observación

El informe se hizo hace 18 minutos, a las 18:00 UTC
Viento 5 kt del norte
Temperatura 36°C
Humedad 50%
Presión 1011 hPa
Visibilidad 10 km o más
Escasas nubes a una altura de 2000 ft

METAR: SLJE 271800Z 35005KT 9999 FEW020 36/24 Q1011

Hora: 14:18 (18:18 UTC)


TAF: falta

Observaciones y pronósticos meteorológicos de más de 4000 aeropuertos (mensajes METAR y TAF).

Los puntos amarillos y rojos representan las estaciones disponibles.

Ponga el ratón en el punto deseado para ver el nombre de la estación.

Haga clic para ver las observaciones y los pronósticos meteorológicos.

Para cambiar el mapa : haga clic en los botones verdes con una cruz de color negro para hacer un zoom, en el botón verde con un guión para alejar o en las flechas verdes para mapas adyacentes.


METAR-TAF: